KEWN

Coastal Carolina Regional Airport

New Bern, North Carolina, USA
METAR KEWN 171754Z 34007KT 10SM BKN021 OVC110 22/18 A3011 RMK AO2 SLP195 60006 T02170178 10233 20206 58012
Observed Flight Rules
Oct-17 @ 17:54 UTC (25 minutes ago) Marginal Visual Flight Rules
Wind Visibility Clouds
340° at 7 knots 10 miles
  • Broken at 2,100' AGL
  • Overcast at 11,000' AGL
Temperatures Readings
Current 22°C / 72°F
Dewpoint 18°C / 64°F
Humidity 78%
Altimeter 30.11" Hg
Pressure 1019.5 hPa
Elevation 3
METAR KEWN 171754Z 34007KT 10SM BKN021 OVC110 22/18 A3011 RMK AO2 SLP195 60006 T02170178 10233 20206 58012
Observed Flight Rules
Oct-17 @ 17:54 UTC
(25 minutes ago)
MVFR
Wind Visibility
340° at 7 knots 10 miles
Clouds
  • Broken at 2,100' AGL
  • Overcast at 11,000' AGL
Temperature Dewpoint
22°C / 72°F 18°C / 64°F
Humidity Altimeter Pressure
78% 30.11" Hg 1019.5 hPa